• Join FlightAware (Why Join?)
  • Login
  • US Flag 
12:07PM EDT


 

Airport Tracker/Info


-or-


 

Live Flight TrackerFlight Track Log ✈ N143DR ✈ 11-Nov-2013 ✈ KCGS - KTTN

Flight Track Log - Related Links

Times and Time Zones

All times are in EST time to prevent confusion due to time zone crossing. See the N143DR flight status page for this flight to view local times or setup timezone preferences in your user account.

Time Position Orientation Groundspeed Altitude Reporting Facility
EST Latitude Longitude Course Direction KTS MPH feet Rate Location/Type
07:42PM 39.0000 -76.9333 360° North 71 82 600  Level Potomac TRACON
07:43PM 39.0167 -76.9333 360° North 100 115 1,300 600 Climbing Potomac TRACON
07:44PM 39.0500 -76.9500 339° North 99 114 1,900 600 Climbing Potomac TRACON
07:45PM 39.0833 -76.9500 360° North 105 121 2,600 600 Climbing Potomac TRACON
07:46PM 39.1000 -76.9500 360° North 95 109 3,200 540 Climbing Potomac TRACON
07:47PM 39.1333 -76.9500 360° North 91 105 3,700 480 Climbing Potomac TRACON
07:48PM 39.1500 -76.9500 360° North 89 102 4,200 480 Climbing Potomac TRACON
07:49PM 39.1833 -76.9500 360° North 86 99 4,700 360 Climbing Potomac TRACON
07:50PM 39.2000 -76.9667 322° Northwest 89 102 5,000 120 Climbing Potomac TRACON
07:51PM 39.2167 -76.9667 360° North 102 117 5,000  Level Potomac TRACON
07:52PM 39.2500 -76.9667 360° North 107 123 5,000  Level Potomac TRACON
07:53PM 39.2833 -76.9667 360° North 104 120 5,000  Level Potomac TRACON
07:54PM 39.3167 -76.9833 339° North 105 121 5,100  Climbing Potomac TRACON
07:55PM 39.3333 -76.9833 360° North 106 122 5,000  Descending Potomac TRACON
07:56PM 39.3667 -76.9833 360° North 104 120 5,100  Climbing Potomac TRACON
07:57PM 39.4000 -76.9500 38° Northeast 126 145 5,100 -60 Level Potomac TRACON
07:58PM 39.4167 -76.9000 67° East 136 157 5,000  Descending Potomac TRACON
07:59PM 39.4333 -76.8667 57° Northeast 134 154 5,100  Climbing Potomac TRACON
08:00PM 39.4500 -76.8167 67° East 133 153 5,100  Level Potomac TRACON
08:01PM 39.4667 -76.7833 57° Northeast 131 151 5,100  Level Potomac TRACON
08:02PM 39.4833 -76.7500 57° Northeast 135 155 5,100  Level Potomac TRACON
08:03PM 39.5167 -76.7000 49° Northeast 135 155 5,100  Level Potomac TRACON
08:04PM 39.5333 -76.6667 57° Northeast 132 152 5,100  Level Potomac TRACON
08:05PM 39.5500 -76.6167 67° East 133 153 5,100 -60 Level Potomac TRACON
08:06PM 39.5667 -76.5833 57° Northeast 135 155 5,000  Descending Potomac TRACON
08:07PM 39.5833 -76.5333 67° East 131 151 5,100  Climbing Potomac TRACON
08:08PM 39.6000 -76.5000 57° Northeast 137 158 5,000 -60 Descending Potomac TRACON
08:09PM 39.6167 -76.4500 67° East 137 158 5,000  Level Potomac TRACON
08:10PM 39.6333 -76.4000 67° East 140 161 5,000  Level Potomac TRACON
08:11PM 39.6500 -76.3667 57° Northeast 137 158 5,100  Climbing Potomac TRACON
08:12PM 39.6667 -76.3167 67° East 138 159 5,100  Level Potomac TRACON
08:14PM 39.7167 -76.2333 52° Northeast 135 155 5,100  Level Philadelphia TRACON
08:15PM 39.7333 -76.1833 67° East 137 158 5,100  Level Philadelphia TRACON
08:16PM 39.7500 -76.1500 57° Northeast 137 158 5,100  Level Philadelphia TRACON
08:17PM 39.7667 -76.1000 67° East 137 158 5,100  Level Philadelphia TRACON
08:18PM 39.7833 -76.0667 57° Northeast 138 159 5,100  Level Philadelphia TRACON
08:19PM 39.8000 -76.0167 67° East 135 155 5,100  Level Philadelphia TRACON
08:20PM 39.8167 -75.9667 67° East 137 158 5,100  Level Philadelphia TRACON
08:21PM 39.8333 -75.9333 57° Northeast 138 159 5,100  Level Philadelphia TRACON
08:22PM 39.8500 -75.8833 67° East 139 160 5,100  Level Philadelphia TRACON
08:23PM 39.8667 -75.8333 67° East 140 161 5,100  Level Philadelphia TRACON
08:24PM 39.8833 -75.8000 57° Northeast 138 159 5,100  Level Philadelphia TRACON
08:25PM 39.9000 -75.7500 67° East 145 167 5,100  Level Philadelphia TRACON
08:26PM 39.9167 -75.7000 66° East 143 165 5,100  Level Philadelphia TRACON
08:27PM 39.9167 -75.6667 90° East 141 162 5,100  Level Philadelphia TRACON
08:28PM 39.9500 -75.6167 49° Northeast 140 161 5,100  Level Philadelphia TRACON
08:29PM 39.9667 -75.5667 66° East 140 161 5,100  Level Philadelphia TRACON
08:30PM 39.9833 -75.5167 66° East 141 162 5,100  Level Philadelphia TRACON
08:31PM 40.0000 -75.4833 57° Northeast 141 162 5,100  Level Philadelphia TRACON
08:32PM 40.0167 -75.4333 66° East 143 165 5,100  Level Philadelphia TRACON
08:33PM 40.0333 -75.3833 66° East 140 161 5,100  Level Philadelphia TRACON
08:34PM 40.0667 -75.3333 49° Northeast 145 167 5,100  Level Philadelphia TRACON
08:35PM 40.0833 -75.3000 57° Northeast 144 166 5,100  Level Philadelphia TRACON
08:36PM 40.1000 -75.2500 66° East 145 167 5,100 -180 Level Philadelphia TRACON
08:37PM 40.1167 -75.2000 66° East 148 170 4,800 -600 Descending Philadelphia TRACON
08:38PM 40.1333 -75.1500 66° East 159 183 4,000 -780 Descending Philadelphia TRACON
08:39PM 40.1667 -75.1000 49° Northeast 156 180 3,300 -480 Descending Philadelphia TRACON
08:40PM 40.1833 -75.0667 57° Northeast 148 170 3,100 -120 Descending Philadelphia TRACON
08:41PM 40.2000 -75.0167 66° East 138 159 3,100  Level Philadelphia TRACON
08:42PM 40.2333 -74.9833 37° Northeast 143 165 3,100  Level Philadelphia TRACON
08:43PM 40.2500 -74.9500 57° Northeast 139 160 3,100  Level Philadelphia TRACON
08:44PM 40.2833 -74.9000 49° Northeast 142 163 3,100 -480 Level Philadelphia TRACON
08:45PM 40.3000 -74.8667 57° Northeast 157 181 2,200 -900 Descending Philadelphia TRACON
08:46PM 40.3167 -74.8167 66° East 120 138 1,400 -600 Descending Philadelphia TRACON
08:47PM 40.3000 -74.8000 143° Southeast 56 64 1,000 -420 Descending Philadelphia TRACON